Time;durP1;ratioP1;P1;durP2;ratioP2;P2;SDS_P1;SDS_P2;PMS_P1;PMS_P2;Temp;Humidity;BMP_temperature;BMP_pressure;BME280_temperature;BME280_humidity;BME280_pressure;Samples;Min_cycle;Max_cycle;Signal;HPM_P1;HPM_P2
2022/07/05 00:00:45;;;;;;;;;;;;;;;19.57;59.59;100091.97;1092326;39;20431;-82
2022/07/05 00:01:46;;;;;;;;;;;;;;;19.52;59.22;100091.75;1088030;54;19943;-82
2022/07/05 00:02:50;;;;;;;;;;;;;;;19.46;59.84;100091.50;1087807;54;19949;-84
2022/07/05 00:03:53;;;;;;;;;;;;;;;19.41;59.79;100093.19;1087932;54;19938;-82
2022/07/05 00:04:55;;;;;;;;;;;;;;;19.39;59.75;100098.78;1088273;54;19934;-82
2022/07/05 00:05:59;;;;;;;;;;;;;;;19.39;60.12;100095.25;1088120;54;20626;-82
2022/07/05 00:08:19;;;;;;;;;;;;;;;19.31;60.60;100090.81;1092696;39;20555;-81
2022/07/05 00:09:22;;;;;;;;;;;;;;;19.32;60.61;100092.50;1088238;54;20756;-83
2022/07/05 00:10:24;;;;;;;;;;;;;;;19.36;60.30;100091.06;1088284;54;20011;-83
2022/07/05 00:11:27;;;;;;;;;;;;;;;19.33;60.27;100092.28;1088284;54;19941;-83
2022/07/05 00:12:32;;;;;;;;;;;;;;;19.33;60.34;100099.59;1089714;46;19942;-81
2022/07/05 00:13:35;;;;;;;;;;;;;;;19.32;60.56;100090.59;1088239;54;19934;-83
2022/07/05 00:14:40;;;;;;;;;;;;;;;19.28;60.53;100097.50;1088242;54;19934;-82
2022/07/05 00:15:44;;;;;;;;;;;;;;;19.28;60.84;100094.78;1088307;54;19949;-82
2022/07/05 00:16:45;;;;;;;;;;;;;;;19.28;60.68;100099.34;1088299;54;19947;-83
2022/07/05 00:17:49;;;;;;;;;;;;;;;19.31;60.72;100097.09;1088225;54;19949;-81
2022/07/05 00:18:50;;;;;;;;;;;;;;;19.35;60.61;100094.81;1088254;54;19943;-80
2022/07/05 00:19:53;;;;;;;;;;;;;;;19.27;61.09;100100.41;1087908;54;19939;-82
2022/07/05 00:20:55;;;;;;;;;;;;;;;19.21;61.29;100096.63;1087888;54;19942;-83
2022/07/05 00:21:59;;;;;;;;;;;;;;;19.20;61.45;100091.38;1090477;31;20698;-80
2022/07/05 00:23:00;;;;;;;;;;;;;;;19.15;61.66;100090.13;1088212;54;19963;-82
2022/07/05 00:24:04;;;;;;;;;;;;;;;19.11;61.88;100091.56;1088243;54;20006;-81
2022/07/05 00:25:06;;;;;;;;;;;;;;;19.12;61.88;100095.94;1089313;46;19943;-80
2022/07/05 00:26:09;;;;;;;;;;;;;;;19.08;61.95;100097.38;1088764;46;19938;-81
2022/07/05 00:27:11;;;;;;;;;;;;;;;19.05;61.85;100097.78;1088205;54;19943;-81
2022/07/05 00:28:15;;;;;;;;;;;;;;;19.02;61.89;100090.91;1088343;47;19927;-83
2022/07/05 00:29:16;;;;;;;;;;;;;;;19.01;62.03;100094.63;1088205;54;19933;-83
2022/07/05 00:30:22;;;;;;;;;;;;;;;18.97;62.23;100092.53;1090116;46;19939;-83
2022/07/05 00:31:23;;;;;;;;;;;;;;;18.94;62.35;100092.91;1089521;46;19943;-82
2022/07/05 00:32:27;;;;;;;;;;;;;;;18.94;62.15;100095.63;1088178;54;19942;-82
2022/07/05 00:33:28;;;;;;;;;;;;;;;18.92;62.22;100089.53;1090733;39;20618;-82
2022/07/05 00:34:32;;;;;;;;;;;;;;;18.92;62.34;100097.66;1091028;31;20690;-81
2022/07/05 00:35:33;;;;;;;;;;;;;;;18.88;61.93;100088.28;1088222;54;19938;-82
2022/07/05 00:36:37;;;;;;;;;;;;;;;18.84;62.29;100099.50;1088207;54;19943;-84
2022/07/05 00:37:38;;;;;;;;;;;;;;;18.82;61.95;100096.13;1087781;54;19943;-82
2022/07/05 00:38:42;;;;;;;;;;;;;;;18.83;62.38;100094.28;1087788;54;20670;-81
2022/07/05 00:39:43;;;;;;;;;;;;;;;18.79;62.21;100093.00;1087883;54;19942;-82
2022/07/05 00:40:47;;;;;;;;;;;;;;;18.74;62.35;100093.59;1088166;54;19949;-83
2022/07/05 00:41:48;;;;;;;;;;;;;;;18.66;62.65;100096.44;1088857;39;20621;-82
2022/07/05 00:42:52;;;;;;;;;;;;;;;18.63;62.98;100107.66;1088107;54;19961;-83
2022/07/05 00:43:54;;;;;;;;;;;;;;;18.62;62.73;100097.84;1088212;54;19949;-80
2022/07/05 00:44:58;;;;;;;;;;;;;;;18.59;62.98;100101.81;1088179;54;19950;-81
2022/07/05 00:46:02;;;;;;;;;;;;;;;18.66;62.65;100097.25;1088212;54;19950;-81
2022/07/05 00:47:06;;;;;;;;;;;;;;;18.58;63.56;100102.81;1090134;39;20684;-81
2022/07/05 00:48:08;;;;;;;;;;;;;;;18.53;63.78;100095.28;1088153;54;19963;-80
2022/07/05 00:49:12;;;;;;;;;;;;;;;18.63;63.49;100103.09;1088174;54;19943;-82
2022/07/05 00:50:15;;;;;;;;;;;;;;;18.60;63.57;100099.94;1088134;54;19949;-81
2022/07/05 00:51:17;;;;;;;;;;;;;;;18.51;64.48;100110.91;1088187;54;19943;-82
2022/07/05 00:52:21;;;;;;;;;;;;;;;18.58;64.17;100104.72;1088493;54;19927;-81
2022/07/05 00:53:24;;;;;;;;;;;;;;;18.57;64.23;100108.44;1088573;54;19960;-81
2022/07/05 00:54:26;;;;;;;;;;;;;;;18.54;64.19;100101.56;1089384;46;19942;-81
2022/07/05 00:55:29;;;;;;;;;;;;;;;18.48;64.15;100103.19;1088111;54;20918;-81
2022/07/05 00:56:31;;;;;;;;;;;;;;;18.43;64.52;100105.63;1088150;54;19942;-80
2022/07/05 00:57:35;;;;;;;;;;;;;;;18.44;64.56;100107.28;1088181;54;19998;-82
2022/07/05 00:58:37;;;;;;;;;;;;;;;18.44;64.31;100111.88;1088491;54;19949;-81
2022/07/05 00:59:40;;;;;;;;;;;;;;;18.42;63.99;100113.94;1088526;54;20658;-80
2022/07/05 01:00:42;;;;;;;;;;;;;;;18.58;63.17;100115.53;1088512;54;19942;-81
2022/07/05 01:01:48;;;;;;;;;;;;;;;18.66;63.08;100113.50;1088496;54;19931;-80
2022/07/05 01:02:52;;;;;;;;;;;;;;;18.74;62.75;100117.13;1094802;39;20806;-80
2022/07/05 01:03:53;;;;;;;;;;;;;;;18.76;62.25;100118.59;1088515;54;19938;-81
2022/07/05 01:04:57;;;;;;;;;;;;;;;18.78;62.12;100115.69;1088456;54;19943;-80
2022/07/05 01:05:58;;;;;;;;;;;;;;;18.81;61.81;100118.81;1089740;46;19938;-81
2022/07/05 01:07:03;;;;;;;;;;;;;;;18.80;61.77;100125.28;1088539;54;20839;-79
2022/07/05 01:08:08;;;;;;;;;;;;;;;18.77;62.29;100125.69;1088496;54;19942;-80
2022/07/05 01:09:12;;;;;;;;;;;;;;;18.79;62.02;100128.19;1088419;54;19938;-80
2022/07/05 01:10:16;;;;;;;;;;;;;;;18.64;62.29;100128.28;1088533;54;20815;-81
2022/07/05 01:11:17;;;;;;;;;;;;;;;18.56;62.50;100123.88;1088484;54;19935;-79
2022/07/05 01:12:21;;;;;;;;;;;;;;;18.60;62.43;100122.44;1088467;54;19954;-81
2022/07/05 01:13:23;;;;;;;;;;;;;;;18.62;62.12;100122.22;1088220;54;19942;-80
2022/07/05 01:14:26;;;;;;;;;;;;;;;18.66;61.79;100118.09;1088110;54;20045;-81
2022/07/05 01:15:28;;;;;;;;;;;;;;;18.71;61.54;100115.63;1088111;54;19994;-79
2022/07/05 01:16:32;;;;;;;;;;;;;;;18.77;60.63;100120.28;1088867;46;19927;-81
2022/07/05 01:17:39;;;;;;;;;;;;;;;18.76;60.70;100117.75;1088481;54;19927;-81
2022/07/05 01:18:40;;;;;;;;;;;;;;;18.81;60.04;100123.41;1088518;54;19955;-80
2022/07/05 01:19:44;;;;;;;;;;;;;;;18.84;60.04;100120.34;1088446;54;19945;-80
2022/07/05 01:20:47;;;;;;;;;;;;;;;18.84;59.79;100121.16;1089966;39;20519;-80
2022/07/05 01:21:51;;;;;;;;;;;;;;;18.80;59.37;100124.44;1088488;54;20721;-80
2022/07/05 01:22:56;;;;;;;;;;;;;;;18.80;59.53;100119.88;1088440;54;19942;-80
2022/07/05 01:24:00;;;;;;;;;;;;;;;18.79;59.29;100112.78;1089369;39;20562;-81
2022/07/05 01:25:04;;;;;;;;;;;;;;;18.80;59.26;100116.31;1088529;54;19961;-81
2022/07/05 01:26:06;;;;;;;;;;;;;;;18.83;58.85;100113.25;1089041;46;19933;-80
2022/07/05 01:27:10;;;;;;;;;;;;;;;18.85;58.62;100117.41;1089437;46;19949;-81
2022/07/05 01:28:12;;;;;;;;;;;;;;;18.89;58.42;100122.44;1088451;54;20607;-81
2022/07/05 01:29:15;;;;;;;;;;;;;;;18.82;59.50;100117.81;1088445;54;19954;-81
2022/07/05 01:30:17;;;;;;;;;;;;;;;18.68;60.39;100116.03;1088429;54;19943;-80
2022/07/05 01:31:21;;;;;;;;;;;;;;;18.59;60.66;100128.88;1088039;54;19983;-81
2022/07/05 01:32:25;;;;;;;;;;;;;;;18.39;61.19;100129.53;1088059;54;19942;-81
2022/07/05 01:33:27;;;;;;;;;;;;;;;18.26;61.66;100118.59;1088176;54;19967;-81
2022/07/05 01:34:31;;;;;;;;;;;;;;;18.13;62.25;100118.47;1088424;54;20028;-80
2022/07/05 01:35:32;;;;;;;;;;;;;;;18.09;62.14;100115.31;1088489;54;19950;-80
2022/07/05 01:36:36;;;;;;;;;;;;;;;18.03;62.05;100118.78;1088483;54;19943;-82
2022/07/05 01:37:37;;;;;;;;;;;;;;;17.97;62.12;100116.81;1090688;39;20546;-81
2022/07/05 01:38:44;;;;;;;;;;;;;;;18.01;62.22;100120.84;1096072;39;20574;-83
2022/07/05 01:39:46;;;;;;;;;;;;;;;18.07;61.99;100122.78;1088517;54;19942;-79
2022/07/05 01:40:51;;;;;;;;;;;;;;;17.96;62.39;100128.63;1088488;54;19966;-80
2022/07/05 01:41:52;;;;;;;;;;;;;;;17.93;62.60;100119.91;1088531;54;19967;-80
2022/07/05 01:42:56;;;;;;;;;;;;;;;17.81;63.03;100121.44;1090308;46;20637;-79
2022/07/05 01:43:57;;;;;;;;;;;;;;;17.77;63.10;100120.97;1088501;54;19950;-80
2022/07/05 01:45:01;;;;;;;;;;;;;;;17.74;63.32;100117.81;1088505;54;19959;-80
2022/07/05 01:46:04;;;;;;;;;;;;;;;17.74;63.55;100118.63;1089456;39;20474;-81
2022/07/05 01:47:09;;;;;;;;;;;;;;;17.70;63.61;100125.47;1091478;46;19943;-80
2022/07/05 01:48:11;;;;;;;;;;;;;;;17.71;63.42;100121.72;1088438;54;19927;-80
2022/07/05 01:49:16;;;;;;;;;;;;;;;17.76;63.62;100126.56;1087986;54;20003;-79
2022/07/05 01:50:20;;;;;;;;;;;;;;;17.74;63.20;100121.34;1088119;54;20026;-81
2022/07/05 01:51:26;;;;;;;;;;;;;;;17.72;63.40;100127.97;1088342;54;19949;-79
2022/07/05 01:52:29;;;;;;;;;;;;;;;17.66;63.46;100126.03;1088470;54;20670;-80
2022/07/05 01:53:34;;;;;;;;;;;;;;;17.69;63.52;100123.78;1088527;54;19939;-81
2022/07/05 01:54:38;;;;;;;;;;;;;;;17.74;63.51;100125.94;1088455;54;19939;-82
2022/07/05 01:55:42;;;;;;;;;;;;;;;17.80;63.39;100127.03;1089459;46;20102;-81
2022/07/05 01:56:43;;;;;;;;;;;;;;;17.85;62.93;100125.44;1088488;54;19943;-80
2022/07/05 01:57:47;;;;;;;;;;;;;;;17.97;62.48;100130.34;1088477;54;19933;-82
2022/07/05 01:58:48;;;;;;;;;;;;;;;18.05;62.50;100131.09;1088443;54;19927;-81
2022/07/05 01:59:52;;;;;;;;;;;;;;;18.08;62.34;100130.72;1088536;54;19950;-83
2022/07/05 02:00:55;;;;;;;;;;;;;;;18.13;61.50;100137.41;1088540;54;19967;-82
2022/07/05 02:01:58;;;;;;;;;;;;;;;18.16;61.29;100124.31;1091662;46;20019;-79
2022/07/05 02:02:59;;;;;;;;;;;;;;;18.21;60.87;100127.31;1088250;54;19957;-83
2022/07/05 02:04:03;;;;;;;;;;;;;;;18.09;61.37;100128.81;1088451;54;19927;-83
2022/07/05 02:05:05;;;;;;;;;;;;;;;18.00;61.69;100136.22;1088472;54;19942;-82
2022/07/05 02:06:11;;;;;;;;;;;;;;;17.88;61.69;100133.16;1090400;46;19950;-82
2022/07/05 02:07:14;;;;;;;;;;;;;;;17.85;61.56;100127.28;1088024;54;19966;-83
2022/07/05 02:08:16;;;;;;;;;;;;;;;17.86;61.81;100129.78;1087993;54;19966;-83
2022/07/05 02:09:20;;;;;;;;;;;;;;;17.89;61.56;100129.41;1088243;54;19934;-82
2022/07/05 02:10:24;;;;;;;;;;;;;;;17.93;61.51;100129.88;1088458;54;19934;-83
2022/07/05 02:11:28;;;;;;;;;;;;;;;18.03;61.05;100124.19;1088421;54;19959;-82
2022/07/05 02:12:29;;;;;;;;;;;;;;;18.08;60.74;100122.59;1088454;54;19931;-81
2022/07/05 02:13:32;;;;;;;;;;;;;;;18.16;60.55;100123.50;1088475;54;19943;-82
2022/07/05 02:14:34;;;;;;;;;;;;;;;18.15;60.38;100128.06;1088441;54;19942;-83
2022/07/05 02:15:38;;;;;;;;;;;;;;;18.16;60.21;100118.91;1088383;54;19951;-83
2022/07/05 02:16:39;;;;;;;;;;;;;;;18.20;59.73;100122.06;1088483;54;19945;-83
2022/07/05 02:17:43;;;;;;;;;;;;;;;18.21;59.54;100118.31;1088428;54;19994;-82
2022/07/05 02:18:44;;;;;;;;;;;;;;;17.97;59.29;100116.81;1088413;54;19943;-83
2022/07/05 02:19:48;;;;;;;;;;;;;;;17.82;59.62;100119.53;1092771;31;20646;-83
2022/07/05 02:20:49;;;;;;;;;;;;;;;17.81;60.02;100121.44;1088494;54;19943;-82
2022/07/05 02:21:53;;;;;;;;;;;;;;;17.77;60.65;100120.97;1088447;54;20022;-83
2022/07/05 02:22:54;;;;;;;;;;;;;;;17.82;61.04;100120.41;1088402;54;19923;-83
2022/07/05 02:23:58;;;;;;;;;;;;;;;17.84;60.83;100118.34;1088312;54;19998;-81
2022/07/05 02:24:59;;;;;;;;;;;;;;;17.83;61.38;100124.78;1088012;54;19942;-82
2022/07/05 02:26:05;;;;;;;;;;;;;;;17.74;61.75;100120.53;1088020;54;20019;-83
2022/07/05 02:27:06;;;;;;;;;;;;;;;17.72;61.80;100122.56;1088382;54;19958;-83
2022/07/05 02:28:10;;;;;;;;;;;;;;;17.69;62.29;100117.53;1088428;54;19927;-83
2022/07/05 02:29:12;;;;;;;;;;;;;;;17.65;62.47;100110.84;1088427;54;19926;-83
2022/07/05 02:30:15;;;;;;;;;;;;;;;17.64;62.20;100115.41;1088358;54;19962;-84
2022/07/05 02:31:16;;;;;;;;;;;;;;;17.61;62.17;100119.31;1088447;54;19942;-83
2022/07/05 02:32:20;;;;;;;;;;;;;;;17.57;62.43;100115.31;1088474;54;19974;-84
2022/07/05 02:33:21;;;;;;;;;;;;;;;17.58;62.47;100110.75;1088352;54;19942;-82
2022/07/05 02:34:25;;;;;;;;;;;;;;;17.58;62.45;100110.75;1088422;54;20002;-83
2022/07/05 02:35:27;;;;;;;;;;;;;;;17.54;62.80;100120.25;1088386;54;19943;-84
2022/07/05 02:36:30;;;;;;;;;;;;;;;17.54;62.65;100107.59;1088464;54;19990;-82
2022/07/05 02:37:31;;;;;;;;;;;;;;;17.49;63.07;100114.59;1088349;54;19955;-81
2022/07/05 02:38:35;;;;;;;;;;;;;;;17.46;63.13;100113.13;1088212;54;19942;-82
2022/07/05 02:39:36;;;;;;;;;;;;;;;17.45;63.26;100119.53;1088444;54;19927;-84
2022/07/05 02:40:40;;;;;;;;;;;;;;;17.42;63.60;100118.06;1088409;54;19934;-81
2022/07/05 02:41:47;;;;;;;;;;;;;;;17.45;63.44;100119.53;1088274;54;19943;-82
2022/07/05 02:42:48;;;;;;;;;;;;;;;17.44;63.17;100120.56;1088007;54;19931;-81
2022/07/05 02:43:52;;;;;;;;;;;;;;;17.42;63.57;100125.31;1088032;54;19943;-82
2022/07/05 02:44:53;;;;;;;;;;;;;;;17.43;63.53;100121.59;1088738;46;19943;-82
2022/07/05 02:45:56;;;;;;;;;;;;;;;17.43;63.46;100122.41;1088395;54;19943;-82
2022/07/05 02:46:58;;;;;;;;;;;;;;;17.50;62.96;100121.69;1088423;54;19954;-81
2022/07/05 02:48:01;;;;;;;;;;;;;;;17.46;63.66;100123.91;1088361;46;21197;-82
2022/07/05 02:49:03;;;;;;;;;;;;;;;17.46;63.30;100130.16;1088414;54;19923;-81
2022/07/05 02:50:07;;;;;;;;;;;;;;;17.48;63.40;100121.03;1090339;46;19954;-79
2022/07/05 02:51:08;;;;;;;;;;;;;;;17.51;63.19;100131.47;1088380;54;19935;-80
2022/07/05 02:52:12;;;;;;;;;;;;;;;17.52;63.03;100130.44;1091219;46;19949;-81
2022/07/05 02:53:14;;;;;;;;;;;;;;;17.57;63.03;100128.81;1088361;54;19943;-80
2022/07/05 02:54:17;;;;;;;;;;;;;;;17.60;63.08;100131.16;1088426;54;19926;-82
2022/07/05 02:55:19;;;;;;;;;;;;;;;17.64;63.02;100125.38;1088329;54;19943;-79
2022/07/05 02:56:22;;;;;;;;;;;;;;;17.70;62.56;100133.59;1088387;54;19945;-80
2022/07/05 02:57:26;;;;;;;;;;;;;;;17.73;62.69;100135.88;1088357;54;19967;-82
2022/07/05 02:58:30;;;;;;;;;;;;;;;17.77;62.34;100131.78;1088348;46;20183;-80
2022/07/05 02:59:31;;;;;;;;;;;;;;;17.82;61.95;100127.66;1088315;54;19930;-80
2022/07/05 10:31:20;;;;;;;;;;;;;;;28.60;26.46;100210.28;1087017;54;19938;-81
2022/07/05 10:32:28;;;;;;;;;;;;;;;28.61;26.36;100209.19;1086657;54;19946;-80
2022/07/05 10:33:32;;;;;;;;;;;;;;;28.96;26.00;100213.34;1087562;46;19942;-83
2022/07/05 10:34:33;;;;;;;;;;;;;;;28.76;25.93;100205.78;1087056;39;20618;-80
2022/07/05 10:35:37;;;;;;;;;;;;;;;28.82;26.12;100207.47;1087103;54;19951;-81
2022/07/05 10:36:39;;;;;;;;;;;;;;;28.98;25.73;100205.66;1087825;54;19942;-82
2022/07/05 10:37:43;;;;;;;;;;;;;;;28.93;25.59;100202.88;1091625;39;20760;-82
2022/07/05 10:38:45;;;;;;;;;;;;;;;29.18;25.72;100198.66;1085893;54;20489;-82
2022/07/05 10:39:49;;;;;;;;;;;;;;;29.39;25.07;100205.13;1086167;54;20478;-83
2022/07/05 10:40:56;;;;;;;;;;;;;;;28.77;25.98;100208.25;1086233;54;19972;-81
2022/07/05 10:41:58;;;;;;;;;;;;;;;28.81;26.06;100202.25;1086983;54;20017;-81
2022/07/05 10:43:02;;;;;;;;;;;;;;;28.79;26.34;100207.97;1086472;31;20539;-82
2022/07/05 10:44:03;;;;;;;;;;;;;;;29.19;26.06;100201.13;1085311;54;19947;-81
2022/07/05 10:45:22;;;;;;;;;;;;;;;29.21;26.08;100204.44;1086377;54;20669;-81
2022/07/05 10:46:36;;;;;;;;;;;;;;;29.08;26.39;100199.41;1086809;54;19950;-82
2022/07/05 10:47:42;;;;;;;;;;;;;;;29.03;25.92;100202.13;1085701;54;19985;-81
2022/07/05 10:48:43;;;;;;;;;;;;;;;28.90;25.94;100206.16;1085645;54;19950;-82
2022/07/05 10:50:01;;;;;;;;;;;;;;;28.84;26.22;100215.44;1086741;54;19962;-82
2022/07/05 10:51:14;;;;;;;;;;;;;;;29.38;25.59;100203.47;1086445;54;19946;-83
2022/07/05 10:52:24;;;;;;;;;;;;;;;29.64;25.42;100201.69;1086518;54;20037;-82
2022/07/05 10:53:30;;;;;;;;;;;;;;;29.16;25.48;100201.66;1085577;54;20043;-81
2022/07/05 10:54:32;;;;;;;;;;;;;;;29.71;25.05;100206.91;1085893;54;21011;-81
2022/07/05 10:55:48;;;;;;;;;;;;;;;29.68;25.15;100201.97;1087258;39;20452;-81
2022/07/05 10:57:07;;;;;;;;;;;;;;;29.58;25.08;100208.25;1085806;46;19966;-82
2022/07/05 10:58:32;;;;;;;;;;;;;;;29.59;24.83;100198.06;1087352;54;19942;-82
2022/07/05 10:59:48;;;;;;;;;;;;;;;29.42;25.32;100205.41;1085725;54;19943;-83
2022/07/05 11:01:12;;;;;;;;;;;;;;;29.54;24.56;100196.13;1085625;54;20592;-82
2022/07/05 11:02:16;;;;;;;;;;;;;;;29.38;24.87;100195.22;1086842;54;19943;-82
2022/07/05 11:03:35;;;;;;;;;;;;;;;29.67;24.91;100192.84;1086144;46;19950;-82
2022/07/05 11:04:39;;;;;;;;;;;;;;;29.75;24.76;100194.28;1085998;39;20166;-83
2022/07/05 11:05:40;;;;;;;;;;;;;;;29.88;24.69;100195.69;1084850;54;20533;-81
2022/07/05 11:06:46;;;;;;;;;;;;;;;29.97;24.22;100182.25;1084709;54;20421;-83
2022/07/05 11:08:02;;;;;;;;;;;;;;;29.90;24.58;100196.25;1085303;54;19946;-82
2022/07/05 11:09:17;;;;;;;;;;;;;;;29.59;24.81;100198.06;1085337;54;20075;-82
2022/07/05 11:10:21;;;;;;;;;;;;;;;29.18;25.18;100198.66;1086003;54;19951;-81
2022/07/05 11:11:23;;;;;;;;;;;;;;;29.00;25.39;100192.44;1086073;54;19950;-81
2022/07/05 11:12:37;;;;;;;;;;;;;;;29.32;25.48;100196.25;1087359;54;19943;-80
2022/07/05 11:13:39;;;;;;;;;;;;;;;29.38;24.34;100198.78;1088112;54;19937;-80
2022/07/05 11:14:50;;;;;;;;;;;;;;;29.38;24.42;100193.28;1088275;54;19943;-81
2022/07/05 11:16:06;;;;;;;;;;;;;;;29.53;24.33;100194.47;1087672;54;19946;-81
2022/07/05 11:17:22;;;;;;;;;;;;;;;29.54;24.69;100196.13;1087734;54;19947;-82
2022/07/05 11:18:26;;;;;;;;;;;;;;;29.38;24.84;100200.72;1091751;46;19935;-80
2022/07/05 11:19:30;;;;;;;;;;;;;;;29.50;24.55;100194.97;1088385;54;19938;-79
2022/07/05 11:20:34;;;;;;;;;;;;;;;29.09;24.73;100188.16;1087792;54;19950;-81
2022/07/05 11:21:36;;;;;;;;;;;;;;;28.94;25.05;100188.88;1087994;54;19943;-84
2022/07/05 11:22:42;;;;;;;;;;;;;;;28.98;25.15;100193.81;1087997;46;19954;-84
2022/07/05 11:23:45;;;;;;;;;;;;;;;28.77;24.98;100189.00;1087626;54;19966;-83
2022/07/05 11:24:47;;;;;;;;;;;;;;;29.06;25.08;100194.16;1087925;54;19945;-83
2022/07/05 11:25:54;;;;;;;;;;;;;;;28.79;25.06;100194.22;1087967;54;19966;-83
2022/07/05 11:26:57;;;;;;;;;;;;;;;28.85;25.09;100197.84;1087701;54;20038;-83
2022/07/05 11:28:15;;;;;;;;;;;;;;;28.70;25.10;100191.13;1087818;39;20725;-83
2022/07/05 11:29:33;;;;;;;;;;;;;;;28.57;25.79;100191.53;1087235;54;19950;-81
2022/07/05 11:30:51;;;;;;;;;;;;;;;28.92;25.33;100192.94;1087634;54;19954;-82
2022/07/05 11:32:06;;;;;;;;;;;;;;;29.11;25.47;100188.69;1085968;54;19974;-83
2022/07/05 11:33:25;;;;;;;;;;;;;;;29.24;25.72;100200.31;1084826;54;19950;-82
2022/07/05 11:34:37;;;;;;;;;;;;;;;29.33;25.43;100195.19;1085052;54;19934;-80
2022/07/05 11:35:41;;;;;;;;;;;;;;;29.26;25.76;100195.41;1085451;54;20452;-82
2022/07/05 11:36:44;;;;;;;;;;;;;;;29.14;25.72;100186.50;1085389;54;19946;-81
2022/07/05 11:37:59;;;;;;;;;;;;;;;28.95;25.92;100189.69;1085438;46;20433;-83
2022/07/05 11:39:12;;;;;;;;;;;;;;;28.97;25.91;100192.16;1085219;54;20002;-81
2022/07/05 11:40:29;;;;;;;;;;;;;;;29.16;25.78;100189.81;1084620;54;19983;-83
2022/07/05 11:41:31;;;;;;;;;;;;;;;28.97;25.81;100187.50;1085751;54;19938;-82
2022/07/05 11:42:37;;;;;;;;;;;;;;;29.03;25.59;100185.63;1085289;54;19951;-80
2022/07/05 11:43:43;;;;;;;;;;;;;;;28.95;25.46;100192.44;1085442;39;20349;-83
2022/07/05 11:44:49;;;;;;;;;;;;;;;28.99;25.45;100190.81;1085358;54;19965;-84
2022/07/05 11:45:57;;;;;;;;;;;;;;;28.69;25.55;100194.97;1085376;39;20423;-83
2022/07/05 11:47:02;;;;;;;;;;;;;;;28.63;25.86;100190.47;1085342;54;19946;-83
2022/07/05 11:48:03;;;;;;;;;;;;;;;28.68;25.96;100185.03;1084927;46;19954;-83
2022/07/05 11:49:07;;;;;;;;;;;;;;;28.60;25.80;100183.59;1085274;39;20353;-81
2022/07/05 11:50:11;;;;;;;;;;;;;;;28.56;25.57;100178.88;1084933;54;19950;-86
2022/07/05 11:51:15;;;;;;;;;;;;;;;28.40;25.91;100187.00;1085568;54;19977;-81
2022/07/05 11:52:20;;;;;;;;;;;;;;;28.41;26.19;100176.81;1085650;54;19946;-85
2022/07/05 11:53:27;;;;;;;;;;;;;;;28.67;26.09;100183.38;1085292;54;19941;-84
2022/07/05 11:54:32;;;;;;;;;;;;;;;28.50;26.49;100183.50;1085375;54;19970;-83
2022/07/05 11:55:36;;;;;;;;;;;;;;;28.27;26.49;100181.91;1084941;54;19951;-81
2022/07/05 11:56:37;;;;;;;;;;;;;;;28.52;26.49;100181.34;1084465;54;19938;-82
2022/07/05 11:57:51;;;;;;;;;;;;;;;28.27;26.96;100181.91;1087919;54;19943;-84
2022/07/05 11:58:55;;;;;;;;;;;;;;;28.30;26.63;100178.66;1087926;54;19946;-82
2022/07/05 11:59:58;;;;;;;;;;;;;;;28.15;26.04;100171.91;1087358;54;19951;-85
2022/07/05 12:01:01;;;;;;;;;;;;;;;28.45;26.01;100181.53;1087174;54;19923;-82
2022/07/05 12:02:05;;;;;;;;;;;;;;;28.19;25.65;100177.75;1086804;54;19950;-85
2022/07/05 12:03:11;;;;;;;;;;;;;;;28.36;25.88;100182.28;1086138;54;19973;-83
2022/07/05 12:04:15;;;;;;;;;;;;;;;28.40;25.77;100176.00;1087359;46;19950;-84
2022/07/05 12:05:18;;;;;;;;;;;;;;;28.33;26.11;100170.72;1087150;54;19958;-81
2022/07/05 12:06:23;;;;;;;;;;;;;;;28.24;26.35;100168.72;1086675;54;19950;-83
2022/07/05 12:07:25;;;;;;;;;;;;;;;28.32;26.26;100169.06;1085617;47;19958;-82
2022/07/05 12:08:29;;;;;;;;;;;;;;;28.44;26.19;100165.31;1084401;54;19957;-83
2022/07/05 12:12:42;;;;;;;;;;;;;;;28.47;26.54;100175.81;1084225;54;20042;-83
2022/07/05 12:13:28;;;;;;;;;;;;;;;28.31;26.54;100170.16;1085068;54;19970;-82
2022/07/05 12:14:29;;;;;;;;;;;;;;;28.21;26.26;100170.03;1085109;54;19946;-81
2022/07/05 12:15:33;;;;;;;;;;;;;;;28.17;26.47;100161.50;1085042;39;20390;-80
2022/07/05 12:16:36;;;;;;;;;;;;;;;28.25;26.38;100162.09;1085259;54;19946;-82
2022/07/05 12:17:38;;;;;;;;;;;;;;;28.45;26.32;100159.53;1085588;54;19935;-82
2022/07/05 12:18:51;;;;;;;;;;;;;;;28.29;25.69;100163.25;1084783;54;19954;-82
2022/07/05 12:19:53;;;;;;;;;;;;;;;28.14;25.84;100155.69;1085494;54;19951;-84
2022/07/05 12:20:59;;;;;;;;;;;;;;;28.09;25.74;100150.16;1085905;54;20026;-82
2022/07/05 12:22:01;;;;;;;;;;;;;;;28.20;25.97;100168.38;1084350;54;19953;-83
2022/07/05 12:23:05;;;;;;;;;;;;;;;28.02;26.08;100164.88;1084487;54;19981;-82
2022/07/05 12:24:08;;;;;;;;;;;;;;;28.12;25.74;100158.72;1084041;54;19939;-82
2022/07/05 12:25:12;;;;;;;;;;;;;;;28.09;26.20;100152.91;1084118;54;19947;-81
2022/07/05 12:26:16;;;;;;;;;;;;;;;28.29;26.34;100155.00;1084634;54;19973;-83
2022/07/05 12:27:17;;;;;;;;;;;;;;;28.41;26.40;100161.19;1085390;39;20372;-82
2022/07/05 12:28:21;;;;;;;;;;;;;;;28.30;26.68;100157.50;1085492;54;20065;-82
2022/07/05 12:29:22;;;;;;;;;;;;;;;28.51;26.71;100157.69;1085031;54;19939;-82
2022/07/05 12:30:27;;;;;;;;;;;;;;;28.40;26.30;100153.19;1083734;54;20433;-82
2022/07/05 12:31:28;;;;;;;;;;;;;;;28.28;26.34;100158.84;1084424;54;19971;-83
2022/07/05 12:32:32;;;;;;;;;;;;;;;28.03;26.57;100162.97;1084857;54;19954;-83
2022/07/05 12:33:35;;;;;;;;;;;;;;;28.30;26.53;100157.50;1083788;54;20445;-83
2022/07/05 12:34:37;;;;;;;;;;;;;;;28.42;26.00;100165.59;1084256;54;19977;-82
2022/07/05 12:35:42;;;;;;;;;;;;;;;28.47;26.14;100157.38;1083937;54;19953;-83
2022/07/05 12:36:46;;;;;;;;;;;;;;;28.46;26.01;100165.91;1083645;54;19946;-83
2022/07/05 12:37:49;;;;;;;;;;;;;;;28.52;26.02;100164.03;1084180;54;19958;-83
2022/07/05 12:39:00;;;;;;;;;;;;;;;28.46;25.82;100160.41;1084041;54;19969;-84
2022/07/05 12:40:03;;;;;;;;;;;;;;;28.59;25.58;100156.38;1083796;54;19974;-82
2022/07/05 12:41:07;;;;;;;;;;;;;;;28.55;25.32;100156.06;1084404;54;20016;-82
2022/07/05 12:42:08;;;;;;;;;;;;;;;28.57;25.53;100145.66;1084616;39;20218;-83
2022/07/05 12:43:12;;;;;;;;;;;;;;;28.65;25.77;100152.56;1084156;54;19949;-81
2022/07/05 12:44:17;;;;;;;;;;;;;;;28.32;25.53;100157.25;1084360;54;19990;-81
2022/07/05 12:45:23;;;;;;;;;;;;;;;27.96;25.88;100156.88;1084831;54;19969;-84
2022/07/05 12:46:38;;;;;;;;;;;;;;;28.20;25.96;100154.63;1084374;54;19946;-83
2022/07/05 12:47:49;;;;;;;;;;;;;;;28.24;25.94;100155.78;1084515;54;19947;-81
2022/07/05 12:48:54;;;;;;;;;;;;;;;28.22;26.02;100159.91;1085269;46;19951;-83
2022/07/05 12:49:55;;;;;;;;;;;;;;;28.38;25.93;100153.44;1084715;54;19946;-82
2022/07/05 12:50:59;;;;;;;;;;;;;;;28.31;25.86;100152.84;1086022;46;19947;-83
2022/07/05 12:52:06;;;;;;;;;;;;;;;28.46;25.92;100150.22;1086051;54;20656;-82
2022/07/05 12:58:34;;;;;;;;;;;;;;;28.91;24.80;100152.78;1087810;54;20016;-85
2022/07/05 12:59:38;;;;;;;;;;;;;;;28.59;24.26;100153.63;1088191;54;19958;-83
2022/07/05 13:00:39;;;;;;;;;;;;;;;28.72;24.71;100144.13;1088357;46;19938;-85
2022/07/05 13:01:44;;;;;;;;;;;;;;;28.95;24.85;100151.16;1087505;54;19950;-82
2022/07/05 13:02:46;;;;;;;;;;;;;;;29.05;24.39;100151.22;1088010;54;19998;-83
2022/07/05 13:04:03;;;;;;;;;;;;;;;29.07;24.50;100146.31;1087500;54;19950;-83
2022/07/05 13:05:05;;;;;;;;;;;;;;;28.85;24.55;100140.94;1086554;54;19946;-84
2022/07/05 13:06:09;;;;;;;;;;;;;;;28.86;24.29;100150.00;1086986;39;20236;-84
2022/07/05 13:07:29;;;;;;;;;;;;;;;28.52;24.59;100147.53;1086537;54;19954;-84
2022/07/05 13:08:30;;;;;;;;;;;;;;;28.56;24.59;100141.25;1085857;54;19947;-83
2022/07/05 13:09:36;;;;;;;;;;;;;;;28.77;24.36;100139.50;1084631;54;19947;-83
2022/07/05 13:10:48;;;;;;;;;;;;;;;28.93;24.27;100148.69;1084858;46;19947;-83
2022/07/05 13:11:49;;;;;;;;;;;;;;;29.02;23.56;100149.00;1085785;54;19950;-81